Xenia, Illinois
Current Conditions -  °F | °C
As of 3:35 AM on Sunday 23 Nov 2014 (Local Time) from KFOA Reporting Station
Clear Clear  
Wind Chill: 42°   Ceiling: Unl
Heat Index: 46°   Visibility: 10mi
Dew Point: 38°   Wind: 9mph
Humidity: 74%   Direction: 150°SSE
Pressure: 29.87"   Gusts: NA
Location:  38.64°N, 88.63°W
Report Text: KFOA 230935Z AUTO 15008KT 10SM CLR 08/04 A2987 RMK AO2 T00800036
Loading
Personal Weather Stations






























Interactive Weather Map New forecast layout! Learn more

10-Day Weather Forecast

Advertisements
Track Severe Weather on mobile